Time;durP1;ratioP1;P1;durP2;ratioP2;P2;SDS_P1;SDS_P2;PMS_P1;PMS_P2;Temp;Humidity;BMP_temperature;BMP_pressure;BME280_temperature;BME280_humidity;BME280_pressure;Samples;Min_cycle;Max_cycle;Signal;HPM_P1;HPM_P2
2021/10/16 00:01:42;;;;;;;;;14.25;13.50;;;;;;;;5012549;28;51831;-67
2021/10/16 00:04:07;;;;;;;;;17.25;15.75;;;;;;;;5011575;28;51098;-68
2021/10/16 00:06:32;;;;;;;;;15.50;14.50;;;;;;;;5009351;28;51122;-68
2021/10/16 00:08:58;;;;;;;;;15.50;14.75;;;;;;;;5011832;28;51077;-67
2021/10/16 00:11:23;;;;;;;;;14.00;14.00;;;;;;;;5012149;28;51319;-68
2021/10/16 00:13:48;;;;;;;;;11.75;9.75;;;;;;;;5011214;28;51116;-67
2021/10/16 00:16:14;;;;;;;;;13.75;13.50;;;;;;;;5012409;28;51276;-67
2021/10/16 00:18:39;;;;;;;;;11.50;11.50;;;;;;;;5012905;28;51124;-67
2021/10/16 00:21:04;;;;;;;;;20.50;20.00;;;;;;;;5008510;28;51342;-67
2021/10/16 00:23:30;;;;;;;;;18.00;16.25;;;;;;;;4993027;28;51369;-69
2021/10/16 00:25:56;;;;;;;;;13.25;13.00;;;;;;;;5011989;28;51059;-68
2021/10/16 00:28:21;;;;;;;;;13.50;13.50;;;;;;;;5010550;28;51142;-70
2021/10/16 00:30:46;;;;;;;;;13.50;13.50;;;;;;;;5010165;28;51105;-69
2021/10/16 00:33:12;;;;;;;;;13.75;13.75;;;;;;;;5010121;28;51255;-68
2021/10/16 00:35:38;;;;;;;;;15.75;13.75;;;;;;;;5012703;28;51224;-69
2021/10/16 00:38:03;;;;;;;;;15.75;14.75;;;;;;;;5008957;28;51214;-69
2021/10/16 00:40:28;;;;;;;;;14.00;13.25;;;;;;;;5008863;28;51056;-68
2021/10/16 00:42:54;;;;;;;;;14.00;13.50;;;;;;;;5011707;28;50967;-69
2021/10/16 00:45:21;;;;;;;;;15.00;14.00;;;;;;;;5011956;28;51066;-69
2021/10/16 00:47:47;;;;;;;;;13.00;12.00;;;;;;;;4997102;28;51128;-70
2021/10/16 00:50:13;;;;;;;;;15.25;14.75;;;;;;;;5004769;28;51828;-69
2021/10/16 00:52:39;;;;;;;;;15.75;13.75;;;;;;;;5010765;28;51310;-69
2021/10/16 00:55:11;;;;;;;;;17.25;15.00;;;;;;;;5011082;28;51229;-69
2021/10/16 00:57:37;;;;;;;;;16.00;14.75;;;;;;;;5012183;28;51277;-67
2021/10/16 01:00:06;;;;;;;;;16.25;15.00;;;;;;;;5011430;28;52305;-68
2021/10/16 01:02:32;;;;;;;;;15.00;15.00;;;;;;;;5011492;28;50959;-66
2021/10/16 01:04:57;;;;;;;;;19.75;17.75;;;;;;;;5008200;28;51320;-67
2021/10/16 01:07:22;;;;;;;;;12.00;11.25;;;;;;;;5012869;28;50931;-67
2021/10/16 01:09:48;;;;;;;;;12.25;11.50;;;;;;;;5013399;28;51122;-68
2021/10/16 01:12:13;;;;;;;;;11.00;10.50;;;;;;;;5014086;28;51149;-66
2021/10/16 01:14:39;;;;;;;;;15.00;14.00;;;;;;;;5020076;28;51423;-67
2021/10/16 01:17:05;;;;;;;;;14.00;14.00;;;;;;;;5013152;28;51642;-67
2021/10/16 01:19:31;;;;;;;;;11.50;11.50;;;;;;;;5017034;28;52660;-67
2021/10/16 01:21:58;;;;;;;;;13.00;11.50;;;;;;;;4980856;28;51006;-67
2021/10/16 01:24:24;;;;;;;;;12.75;12.00;;;;;;;;4998130;28;51466;-67
2021/10/16 01:26:50;;;;;;;;;13.00;12.75;;;;;;;;5013025;28;51259;-67
2021/10/16 01:29:22;;;;;;;;;13.75;12.00;;;;;;;;5009921;28;51688;-67
2021/10/16 01:31:47;;;;;;;;;15.25;14.00;;;;;;;;4996291;28;51179;-68
2021/10/16 01:34:13;;;;;;;;;14.75;11.50;;;;;;;;5014623;28;50916;-67
2021/10/16 01:36:42;;;;;;;;;10.00;9.75;;;;;;;;5015403;28;50955;-66
2021/10/16 01:39:08;;;;;;;;;14.25;14.25;;;;;;;;5006470;28;51325;-66
2021/10/16 01:41:33;;;;;;;;;15.50;12.00;;;;;;;;5014492;28;51271;-68
2021/10/16 01:43:58;;;;;;;;;15.50;13.25;;;;;;;;5014135;28;51090;-68
2021/10/16 01:46:23;;;;;;;;;15.00;14.75;;;;;;;;5008650;28;51283;-68
2021/10/16 01:48:48;;;;;;;;;10.50;10.00;;;;;;;;5014278;28;51894;-68
2021/10/16 01:51:17;;;;;;;;;11.75;10.00;;;;;;;;5014478;28;50904;-68
2021/10/16 01:53:45;;;;;;;;;12.75;12.75;;;;;;;;5014119;28;51024;-68
2021/10/16 01:56:11;;;;;;;;;14.50;13.00;;;;;;;;5015468;28;51354;-67
2021/10/16 01:58:36;;;;;;;;;14.25;12.75;;;;;;;;5014391;28;52277;-67
2021/10/16 02:01:01;;;;;;;;;15.50;13.25;;;;;;;;5013439;28;51041;-68
2021/10/16 02:03:26;;;;;;;;;13.00;12.50;;;;;;;;5013738;28;51103;-68
2021/10/16 02:05:52;;;;;;;;;12.50;11.50;;;;;;;;5013064;28;51117;-67
2021/10/16 02:08:17;;;;;;;;;14.50;13.25;;;;;;;;5014457;28;51026;-68
2021/10/16 02:10:42;;;;;;;;;11.00;10.75;;;;;;;;5013235;28;50959;-66
2021/10/16 02:13:07;;;;;;;;;12.00;10.75;;;;;;;;5014850;28;51385;-69
2021/10/16 02:15:33;;;;;;;;;10.50;10.00;;;;;;;;5014508;28;50951;-67
2021/10/16 02:17:58;;;;;;;;;12.75;11.75;;;;;;;;5013379;28;50923;-68
2021/10/16 02:20:23;;;;;;;;;15.75;15.25;;;;;;;;5011250;28;52631;-67
2021/10/16 02:22:48;;;;;;;;;11.50;11.50;;;;;;;;5013828;28;50899;-67
2021/10/16 02:25:13;;;;;;;;;17.00;16.00;;;;;;;;5014111;28;50855;-67
2021/10/16 02:27:39;;;;;;;;;12.75;11.25;;;;;;;;5007074;28;51350;-68
2021/10/16 02:30:04;;;;;;;;;11.75;11.25;;;;;;;;5008506;28;51214;-66
2021/10/16 02:32:29;;;;;;;;;12.75;12.00;;;;;;;;5014426;28;52508;-68
2021/10/16 02:34:54;;;;;;;;;14.25;13.00;;;;;;;;5012591;28;51042;-67
2021/10/16 02:37:20;;;;;;;;;12.25;11.75;;;;;;;;5014182;28;52036;-69
2021/10/16 02:39:45;;;;;;;;;15.75;14.00;;;;;;;;5010951;28;52647;-68
2021/10/16 02:42:10;;;;;;;;;13.50;12.75;;;;;;;;5007336;28;51277;-67
2021/10/16 02:44:36;;;;;;;;;12.75;12.25;;;;;;;;5003232;28;51172;-67
2021/10/16 02:47:01;;;;;;;;;12.00;11.75;;;;;;;;5013129;28;52522;-67
2021/10/16 02:49:26;;;;;;;;;13.75;12.75;;;;;;;;5012082;28;51118;-69
2021/10/16 02:51:51;;;;;;;;;11.50;11.00;;;;;;;;5008830;28;51223;-67
2021/10/16 02:54:17;;;;;;;;;12.00;12.00;;;;;;;;5013750;28;51062;-68
2021/10/16 02:56:42;;;;;;;;;10.75;10.00;;;;;;;;5013120;28;52165;-69
2021/10/16 02:59:07;;;;;;;;;10.50;9.00;;;;;;;;4995658;28;51054;-67
2021/10/16 03:01:32;;;;;;;;;11.75;10.00;;;;;;;;5012062;28;51159;-69
2021/10/16 03:03:58;;;;;;;;;11.00;11.00;;;;;;;;5012795;28;51683;-68
2021/10/16 03:06:23;;;;;;;;;9.00;9.00;;;;;;;;5013225;28;51726;-69
2021/10/16 03:08:49;;;;;;;;;14.00;12.75;;;;;;;;5012643;28;50947;-68
2021/10/16 03:11:14;;;;;;;;;12.00;10.50;;;;;;;;4995126;28;51043;-70
2021/10/16 03:13:39;;;;;;;;;12.00;10.25;;;;;;;;5007798;28;51861;-69
2021/10/16 03:16:05;;;;;;;;;11.00;10.00;;;;;;;;5013829;28;51723;-68
2021/10/16 03:18:30;;;;;;;;;10.00;10.00;;;;;;;;5013731;28;51037;-68
2021/10/16 03:20:55;;;;;;;;;12.25;11.00;;;;;;;;5012370;28;51268;-69
2021/10/16 03:23:20;;;;;;;;;9.50;9.50;;;;;;;;5011128;28;51073;-68
2021/10/16 03:25:46;;;;;;;;;12.00;11.00;;;;;;;;5012169;28;52180;-68
2021/10/16 03:28:11;;;;;;;;;12.00;9.75;;;;;;;;5013790;28;51101;-68
2021/10/16 03:30:37;;;;;;;;;11.25;10.50;;;;;;;;5012373;28;50998;-68
2021/10/16 03:33:03;;;;;;;;;12.00;10.00;;;;;;;;5016078;28;51189;-68
2021/10/16 03:35:28;;;;;;;;;11.00;11.00;;;;;;;;5012985;28;51549;-70
2021/10/16 03:37:53;;;;;;;;;11.00;11.00;;;;;;;;5013444;28;51002;-69
2021/10/16 03:40:19;;;;;;;;;11.25;10.75;;;;;;;;5013023;28;51348;-69
2021/10/16 03:42:44;;;;;;;;;10.00;9.75;;;;;;;;5004387;28;51133;-69
2021/10/16 03:45:09;;;;;;;;;11.00;10.00;;;;;;;;5006896;28;51718;-69
2021/10/16 03:47:34;;;;;;;;;13.50;10.75;;;;;;;;5013357;28;51083;-69
2021/10/16 03:49:59;;;;;;;;;10.00;9.50;;;;;;;;5012753;28;51321;-68
2021/10/16 03:52:24;;;;;;;;;11.25;11.00;;;;;;;;5012191;28;51027;-68
2021/10/16 03:54:50;;;;;;;;;13.50;12.75;;;;;;;;5013260;28;51733;-68
2021/10/16 03:57:15;;;;;;;;;11.50;10.75;;;;;;;;5011603;28;51123;-68
2021/10/16 03:59:42;;;;;;;;;12.00;11.50;;;;;;;;5011718;28;51006;-69
2021/10/16 04:02:08;;;;;;;;;11.50;11.25;;;;;;;;5012896;28;51444;-69
2021/10/16 04:04:33;;;;;;;;;10.75;10.75;;;;;;;;5012778;28;52663;-69
2021/10/16 04:06:58;;;;;;;;;11.50;11.50;;;;;;;;5013342;28;50908;-68
2021/10/16 04:09:23;;;;;;;;;14.75;14.75;;;;;;;;5012483;28;51061;-69
2021/10/16 04:11:49;;;;;;;;;17.75;16.75;;;;;;;;5008326;28;50993;-69
2021/10/16 04:14:14;;;;;;;;;22.75;19.00;;;;;;;;5013887;28;51206;-70
2021/10/16 04:16:39;;;;;;;;;17.75;17.75;;;;;;;;5011077;28;51038;-69
2021/10/16 04:19:04;;;;;;;;;17.50;16.50;;;;;;;;5013163;28;50977;-68
2021/10/16 04:21:29;;;;;;;;;15.50;14.50;;;;;;;;5011582;28;51508;-68
2021/10/16 04:23:55;;;;;;;;;17.25;16.50;;;;;;;;5019507;28;51820;-69
2021/10/16 04:26:20;;;;;;;;;16.00;15.50;;;;;;;;5012352;28;51074;-68
2021/10/16 04:28:45;;;;;;;;;17.50;13.75;;;;;;;;5008587;28;51276;-69
2021/10/16 04:31:10;;;;;;;;;17.00;16.00;;;;;;;;5010867;28;51025;-67
2021/10/16 04:33:36;;;;;;;;;18.25;15.50;;;;;;;;5011960;28;50922;-68
2021/10/16 04:36:03;;;;;;;;;16.00;14.75;;;;;;;;5011624;28;51082;-68
2021/10/16 04:38:28;;;;;;;;;17.00;16.25;;;;;;;;5012313;28;51062;-69
2021/10/16 04:40:53;;;;;;;;;17.75;17.00;;;;;;;;4978133;28;50947;-69
2021/10/16 04:43:19;;;;;;;;;17.00;13.75;;;;;;;;5010003;28;51978;-67
2021/10/16 04:45:45;;;;;;;;;10.00;10.00;;;;;;;;5006155;28;51178;-68
2021/10/16 04:48:10;;;;;;;;;17.00;14.75;;;;;;;;5004280;28;51081;-69
2021/10/16 04:50:35;;;;;;;;;15.50;13.00;;;;;;;;5011362;28;51219;-68
2021/10/16 04:53:01;;;;;;;;;12.00;12.00;;;;;;;;5011370;28;51003;-68
2021/10/16 04:55:26;;;;;;;;;9.25;8.25;;;;;;;;5011700;28;51126;-69
2021/10/16 04:57:51;;;;;;;;;11.75;11.25;;;;;;;;5012896;28;50959;-68
2021/10/16 05:00:17;;;;;;;;;14.75;12.50;;;;;;;;5011520;28;51204;-68
2021/10/16 05:02:42;;;;;;;;;11.25;11.00;;;;;;;;5004000;28;51936;-68
2021/10/16 05:05:07;;;;;;;;;8.25;8.25;;;;;;;;5000176;28;51121;-68
2021/10/16 05:07:33;;;;;;;;;13.00;13.00;;;;;;;;5012271;28;50900;-67
2021/10/16 05:09:58;;;;;;;;;13.25;13.00;;;;;;;;5011796;28;51303;-68
2021/10/16 05:12:23;;;;;;;;;16.75;16.00;;;;;;;;5006870;28;51750;-69
2021/10/16 05:14:48;;;;;;;;;12.50;11.50;;;;;;;;5011124;28;51219;-69
2021/10/16 05:17:13;;;;;;;;;10.50;9.50;;;;;;;;5012173;28;51337;-68
2021/10/16 05:19:39;;;;;;;;;9.50;9.00;;;;;;;;5011237;28;50975;-69
2021/10/16 05:22:04;;;;;;;;;14.00;13.00;;;;;;;;5003349;28;51761;-68
2021/10/16 05:24:29;;;;;;;;;15.25;13.75;;;;;;;;5011604;28;50989;-69
2021/10/16 05:26:54;;;;;;;;;13.25;11.25;;;;;;;;5011435;28;51168;-68
2021/10/16 05:29:21;;;;;;;;;13.00;12.00;;;;;;;;5011478;28;51276;-68
2021/10/16 05:31:46;;;;;;;;;12.25;10.50;;;;;;;;5012448;28;51249;-69
2021/10/16 05:34:12;;;;;;;;;11.00;11.00;;;;;;;;5018377;28;51204;-69
2021/10/16 05:36:37;;;;;;;;;14.25;12.75;;;;;;;;5008066;28;51149;-69
2021/10/16 05:39:03;;;;;;;;;11.75;11.50;;;;;;;;5001005;28;54782;-71
2021/10/16 05:41:28;;;;;;;;;16.00;14.00;;;;;;;;5000379;28;52254;-70
2021/10/16 05:43:53;;;;;;;;;12.00;10.25;;;;;;;;5011735;28;50998;-69
2021/10/16 05:46:18;;;;;;;;;13.00;10.75;;;;;;;;5009925;28;51047;-69
2021/10/16 05:48:44;;;;;;;;;13.25;11.25;;;;;;;;5012180;28;51080;-69
2021/10/16 05:51:11;;;;;;;;;12.50;11.50;;;;;;;;5009606;28;52139;-70
2021/10/16 05:53:36;;;;;;;;;10.75;10.50;;;;;;;;5011367;28;51046;-69
2021/10/16 05:56:01;;;;;;;;;16.00;14.00;;;;;;;;5013127;28;50862;-69
2021/10/16 05:58:26;;;;;;;;;15.00;13.00;;;;;;;;5006627;28;50904;-68
2021/10/16 06:00:52;;;;;;;;;13.75;12.50;;;;;;;;5013993;28;51702;-67
2021/10/16 06:03:17;;;;;;;;;12.00;10.75;;;;;;;;5009034;28;51141;-70
2021/10/16 06:05:42;;;;;;;;;11.50;11.00;;;;;;;;5014493;28;50934;-67
2021/10/16 06:08:07;;;;;;;;;11.25;11.25;;;;;;;;5014649;28;50866;-68
2021/10/16 06:10:33;;;;;;;;;12.00;11.00;;;;;;;;5013852;28;51815;-68
2021/10/16 06:12:58;;;;;;;;;11.25;11.25;;;;;;;;5012547;28;51245;-67
2021/10/16 06:15:23;;;;;;;;;11.00;11.00;;;;;;;;5014267;28;50963;-68
2021/10/16 06:17:49;;;;;;;;;12.50;11.25;;;;;;;;5015159;28;51194;-68
2021/10/16 06:20:14;;;;;;;;;11.75;10.75;;;;;;;;5013822;28;51809;-68
2021/10/16 06:22:39;;;;;;;;;13.50;12.00;;;;;;;;5013802;28;51167;-68
2021/10/16 06:25:05;;;;;;;;;12.00;11.25;;;;;;;;5014978;28;51385;-70
2021/10/16 06:27:31;;;;;;;;;9.50;9.25;;;;;;;;4997224;28;51056;-68
2021/10/16 06:29:56;;;;;;;;;10.25;10.00;;;;;;;;5012398;28;51184;-69
2021/10/16 06:32:22;;;;;;;;;9.25;9.25;;;;;;;;4995706;28;51043;-68
2021/10/16 06:34:47;;;;;;;;;17.00;13.50;;;;;;;;5013870;28;51120;-70
2021/10/16 06:37:12;;;;;;;;;10.00;10.00;;;;;;;;5014637;28;51415;-68
2021/10/16 06:39:37;;;;;;;;;13.25;11.75;;;;;;;;5014159;28;51876;-68
2021/10/16 06:42:03;;;;;;;;;13.00;12.75;;;;;;;;5012266;28;51949;-69
2021/10/16 06:44:28;;;;;;;;;14.75;13.00;;;;;;;;5009322;28;51860;-68
2021/10/16 06:46:53;;;;;;;;;13.00;13.00;;;;;;;;5011476;28;51396;-68
2021/10/16 06:49:18;;;;;;;;;12.75;12.75;;;;;;;;5014504;28;51791;-69
2021/10/16 06:51:44;;;;;;;;;17.75;15.00;;;;;;;;4996301;28;51053;-68
2021/10/16 06:54:10;;;;;;;;;13.00;13.00;;;;;;;;5012593;28;51194;-69
2021/10/16 06:56:35;;;;;;;;;12.25;11.50;;;;;;;;5014537;28;50911;-69
2021/10/16 06:59:01;;;;;;;;;11.50;11.50;;;;;;;;5000825;28;50907;-69
2021/10/16 07:01:26;;;;;;;;;13.50;13.50;;;;;;;;5013574;28;51155;-68
2021/10/16 07:03:51;;;;;;;;;11.00;10.00;;;;;;;;5008781;28;51089;-69
2021/10/16 07:06:16;;;;;;;;;7.25;7.25;;;;;;;;4998772;28;51194;-69
2021/10/16 07:08:42;;;;;;;;;13.00;12.75;;;;;;;;5012519;28;52033;-69
2021/10/16 07:11:07;;;;;;;;;12.75;12.00;;;;;;;;5014249;28;51052;-69
2021/10/16 07:13:32;;;;;;;;;12.75;12.25;;;;;;;;4993354;28;50989;-69
2021/10/16 07:15:58;;;;;;;;;27.50;27.00;;;;;;;;5013310;28;51298;-68
2021/10/16 07:18:24;;;;;;;;;36.00;33.75;;;;;;;;5013499;28;51141;-68
2021/10/16 07:20:49;;;;;;;;;13.50;11.00;;;;;;;;5010565;28;51209;-67
2021/10/16 07:23:16;;;;;;;;;15.25;13.00;;;;;;;;5010635;28;51172;-67
2021/10/16 07:25:43;;;;;;;;;9.50;8.50;;;;;;;;5015534;28;52000;-64
2021/10/16 07:28:08;;;;;;;;;10.75;10.75;;;;;;;;5009345;28;51991;-64
2021/10/16 07:30:34;;;;;;;;;10.25;10.00;;;;;;;;5011189;28;50978;-63
2021/10/16 07:32:59;;;;;;;;;10.75;10.00;;;;;;;;5011510;28;51011;-63
2021/10/16 07:35:24;;;;;;;;;8.50;7.75;;;;;;;;5019595;28;50860;-65
2021/10/16 07:37:49;;;;;;;;;8.50;8.50;;;;;;;;5013062;28;51902;-64
2021/10/16 07:40:15;;;;;;;;;8.25;8.25;;;;;;;;5006113;28;51195;-64
2021/10/16 07:42:40;;;;;;;;;10.75;9.75;;;;;;;;5011926;28;51296;-63
2021/10/16 07:45:05;;;;;;;;;8.50;8.00;;;;;;;;5013423;28;51118;-64
2021/10/16 07:47:31;;;;;;;;;11.50;10.75;;;;;;;;5011935;28;52759;-64
2021/10/16 07:49:56;;;;;;;;;12.00;12.00;;;;;;;;5011243;28;51056;-60
2021/10/16 07:52:21;;;;;;;;;18.00;18.00;;;;;;;;5011200;28;51146;-72
2021/10/16 07:54:47;;;;;;;;;10.75;9.50;;;;;;;;5010953;28;51213;-72
2021/10/16 07:57:14;;;;;;;;;12.25;9.75;;;;;;;;5008971;28;51153;-71
2021/10/16 07:59:39;;;;;;;;;8.25;7.50;;;;;;;;5003450;28;51260;-70
2021/10/16 08:02:05;;;;;;;;;10.75;10.50;;;;;;;;5008479;28;51171;-71
2021/10/16 08:04:30;;;;;;;;;14.75;13.00;;;;;;;;4994983;28;51290;-70
2021/10/16 08:06:55;;;;;;;;;10.00;10.00;;;;;;;;5011363;28;51752;-71
2021/10/16 08:09:21;;;;;;;;;13.25;13.00;;;;;;;;5008300;28;51120;-71
2021/10/16 08:11:46;;;;;;;;;22.00;20.50;;;;;;;;5006186;28;51095;-71
2021/10/16 08:14:11;;;;;;;;;11.75;11.00;;;;;;;;5005463;28;51597;-68
2021/10/16 08:16:37;;;;;;;;;12.50;12.00;;;;;;;;5003443;28;51718;-70
2021/10/16 08:19:02;;;;;;;;;10.00;9.00;;;;;;;;5006052;28;51323;-72
2021/10/16 08:21:28;;;;;;;;;9.00;9.00;;;;;;;;5011460;28;51680;-70
2021/10/16 08:23:53;;;;;;;;;7.67;7.67;;;;;;;;5011423;28;51075;-69
2021/10/16 08:26:18;;;;;;;;;10.67;10.67;;;;;;;;4994452;28;53842;-70
2021/10/16 08:28:43;;;;;;;;;13.00;11.67;;;;;;;;5010824;28;51157;-70
2021/10/16 08:31:09;;;;;;;;;11.33;10.67;;;;;;;;5009583;28;51465;-66
2021/10/16 08:33:37;;;;;;;;;11.67;10.33;;;;;;;;5002955;28;51359;-66
2021/10/16 08:36:02;;;;;;;;;9.33;9.00;;;;;;;;5012196;28;51984;-66
2021/10/16 08:38:27;;;;;;;;;11.33;11.33;;;;;;;;5011666;28;51083;-65
2021/10/16 08:40:52;;;;;;;;;9.00;6.00;;;;;;;;5012441;28;50981;-66
2021/10/16 08:43:18;;;;;;;;;10.33;10.33;;;;;;;;5012265;28;50952;-65
2021/10/16 08:45:44;;;;;;;;;9.67;9.00;;;;;;;;5012166;28;52027;-65
2021/10/16 08:48:11;;;;;;;;;6.00;6.00;;;;;;;;5010008;28;50950;-66
2021/10/16 08:50:36;;;;;;;;;7.00;7.00;;;;;;;;5012583;28;50953;-66
2021/10/16 08:53:01;;;;;;;;;8.00;7.33;;;;;;;;5011961;28;51246;-66
2021/10/16 08:55:27;;;;;;;;;7.33;7.33;;;;;;;;5011924;28;51053;-67
2021/10/16 08:57:52;;;;;;;;;7.33;7.33;;;;;;;;5011837;28;50968;-68
2021/10/16 09:00:36;;;;;;;;;8.67;8.33;;;;;;;;5006859;28;51229;-67
2021/10/16 09:03:19;;;;;;;;;5.67;4.67;;;;;;;;5012250;28;51283;-66
2021/10/16 09:06:01;;;;;;;;;11.00;8.00;;;;;;;;5010337;28;52921;-67
2021/10/16 09:08:34;;;;;;;;;8.00;8.00;;;;;;;;5010852;28;50971;-68
2021/10/16 09:11:17;;;;;;;;;6.67;6.33;;;;;;;;5011760;28;50985;-67
2021/10/16 09:13:47;;;;;;;;;8.67;8.00;;;;;;;;5012185;28;51996;-67
2021/10/16 09:16:23;;;;;;;;;7.33;7.33;;;;;;;;4993318;28;51891;-68
2021/10/16 09:18:49;;;;;;;;;8.00;8.00;;;;;;;;5007684;28;51478;-67
2021/10/16 09:21:15;;;;;;;;;8.00;7.33;;;;;;;;5005523;28;51454;-67
2021/10/16 09:23:40;;;;;;;;;10.00;9.67;;;;;;;;5011425;28;51306;-68
2021/10/16 09:26:07;;;;;;;;;12.00;10.33;;;;;;;;5011485;28;51675;-68
2021/10/16 09:28:33;;;;;;;;;10.00;10.00;;;;;;;;5011757;28;51015;-67
2021/10/16 09:31:07;;;;;;;;;9.00;9.00;;;;;;;;5014393;28;51081;-67
2021/10/16 09:33:44;;;;;;;;;8.00;8.00;;;;;;;;5015307;28;51074;-67
2021/10/16 09:36:22;;;;;;;;;9.00;9.00;;;;;;;;5013280;28;51169;-67
2021/10/16 09:38:47;;;;;;;;;12.33;11.67;;;;;;;;5014331;28;50987;-67
2021/10/16 09:41:30;;;;;;;;;12.33;11.33;;;;;;;;5014619;28;51241;-68
2021/10/16 09:43:56;;;;;;;;;14.67;14.00;;;;;;;;5014412;28;50805;-68
2021/10/16 09:46:22;;;;;;;;;17.33;15.00;;;;;;;;5014261;28;52428;-68
2021/10/16 09:48:47;;;;;;;;;17.33;16.67;;;;;;;;5014558;28;51411;-68
2021/10/16 09:51:16;;;;;;;;;15.50;14.75;;;;;;;;5010975;28;51204;-67
2021/10/16 09:53:42;;;;;;;;;18.67;18.00;;;;;;;;5014001;28;51240;-68
2021/10/16 09:56:09;;;;;;;;;11.67;11.67;;;;;;;;5013568;28;51819;-68
2021/10/16 09:58:36;;;;;;;;;13.67;12.67;;;;;;;;4996227;28;50892;-68
2021/10/16 10:01:01;;;;;;;;;93.40;89.00;;;;;;;;5013572;28;51064;-68
2021/10/16 10:03:29;;;;;;;;;9.67;9.67;;;;;;;;5014492;28;50866;-69
2021/10/16 10:05:55;;;;;;;;;12.67;11.67;;;;;;;;5014025;28;51929;-68
2021/10/16 10:08:20;;;;;;;;;8.00;7.67;;;;;;;;5013462;28;51011;-68
2021/10/16 10:10:47;;;;;;;;;10.33;10.33;;;;;;;;5011674;28;51241;-67
2021/10/16 10:13:12;;;;;;;;;10.67;10.00;;;;;;;;5013785;28;50952;-67
2021/10/16 10:15:38;;;;;;;;;13.00;12.00;;;;;;;;5013572;28;51625;-67
2021/10/16 10:18:59;;;;;;;;;10.67;10.67;;;;;;;;5013637;28;51017;-68
2021/10/16 10:20:50;;;;;;;;;11.00;11.00;;;;;;;;5012834;28;51199;-69
2021/10/16 10:23:19;;;;;;;;;10.00;10.00;;;;;;;;5013464;28;50842;-68
2021/10/16 10:25:44;;;;;;;;;8.33;8.33;;;;;;;;5003756;28;51114;-68
2021/10/16 10:28:09;;;;;;;;;9.00;8.00;;;;;;;;5013139;28;51116;-67
2021/10/16 10:30:34;;;;;;;;;9.33;9.33;;;;;;;;5002206;28;51748;-69
2021/10/16 10:33:15;;;;;;;;;6.00;6.00;;;;;;;;5014202;28;50882;-68
2021/10/16 10:35:46;;;;;;;;;6.33;5.67;;;;;;;;5013423;28;51839;-69
2021/10/16 10:38:30;;;;;;;;;7.33;7.33;;;;;;;;5013457;28;51121;-67
2021/10/16 10:40:55;;;;;;;;;10.00;8.67;;;;;;;;5009079;28;51153;-68
2021/10/16 10:43:40;;;;;;;;;9.67;9.67;;;;;;;;5013335;28;51057;-68
2021/10/16 10:46:12;;;;;;;;;7.00;6.67;;;;;;;;5011360;28;51728;-69
2021/10/16 10:48:47;;;;;;;;;9.67;9.00;;;;;;;;5012361;28;50998;-67
2021/10/16 10:51:28;;;;;;;;;9.33;9.33;;;;;;;;5011809;28;51263;-69
2021/10/16 10:54:08;;;;;;;;;8.67;8.00;;;;;;;;5012361;28;51233;-68
2021/10/16 10:56:38;;;;;;;;;6.67;6.67;;;;;;;;5012816;28;52159;-68
2021/10/16 10:59:03;;;;;;;;;7.00;6.33;;;;;;;;5000505;28;51339;-68
2021/10/16 11:01:41;;;;;;;;;7.67;6.67;;;;;;;;5011742;28;51228;-68
2021/10/16 11:04:07;;;;;;;;;5.33;5.00;;;;;;;;5013163;28;51031;-69
2021/10/16 11:06:32;;;;;;;;;6.00;5.33;;;;;;;;5012101;28;51260;-69
2021/10/16 11:09:13;;;;;;;;;3.00;3.00;;;;;;;;5012861;28;50895;-69
2021/10/16 11:11:49;;;;;;;;;6.00;6.00;;;;;;;;5011488;28;51220;-69
2021/10/16 11:14:15;;;;;;;;;6.00;6.00;;;;;;;;5011202;28;50926;-69
2021/10/16 11:16:56;;;;;;;;;4.00;4.00;;;;;;;;5011662;28;51415;-69
2021/10/16 11:19:22;;;;;;;;;4.00;4.00;;;;;;;;5011588;28;51167;-68
2021/10/16 11:22:05;;;;;;;;;5.33;5.33;;;;;;;;5006436;28;51363;-68
2021/10/16 11:24:31;;;;;;;;;5.00;5.00;;;;;;;;5012182;28;51282;-69
2021/10/16 11:26:58;;;;;;;;;6.67;6.67;;;;;;;;5011754;28;52613;-70
2021/10/16 11:29:30;;;;;;;;;4.67;4.67;;;;;;;;5004030;28;51004;-69
2021/10/16 11:32:14;;;;;;;;;7.33;6.67;;;;;;;;5011898;28;51106;-69
2021/10/16 11:34:40;;;;;;;;;8.00;7.33;;;;;;;;5011882;28;51387;-70
2021/10/16 11:37:06;;;;;;;;;5.00;4.67;;;;;;;;5011178;28;51204;-69
2021/10/16 11:39:33;;;;;;;;;6.00;6.00;;;;;;;;5011198;28;51030;-69
2021/10/16 11:41:59;;;;;;;;;5.00;5.00;;;;;;;;5007783;28;52361;-69
2021/10/16 11:44:24;;;;;;;;;9.33;9.33;;;;;;;;5012192;28;50932;-69
2021/10/16 11:47:05;;;;;;;;;5.33;5.33;;;;;;;;5010267;28;52069;-69
2021/10/16 11:49:30;;;;;;;;;6.00;6.00;;;;;;;;5010910;28;51262;-69
2021/10/16 11:51:56;;;;;;;;;7.33;7.33;;;;;;;;5009675;28;51272;-69
2021/10/16 11:54:21;;;;;;;;;5.67;5.67;;;;;;;;5011510;28;51264;-69
2021/10/16 11:56:56;;;;;;;;;5.67;5.67;;;;;;;;5012007;28;51875;-70
2021/10/16 11:59:21;;;;;;;;;7.00;6.67;;;;;;;;5011513;28;51039;-68
2021/10/16 12:01:47;;;;;;;;;4.33;4.33;;;;;;;;5003321;28;51164;-69
2021/10/16 12:04:12;;;;;;;;;7.33;6.33;;;;;;;;5012805;28;51416;-68
2021/10/16 12:06:38;;;;;;;;;4.33;4.33;;;;;;;;5011150;28;52256;-69
2021/10/16 12:09:04;;;;;;;;;5.00;5.00;;;;;;;;5010950;28;51215;-70
2021/10/16 12:11:30;;;;;;;;;5.00;5.00;;;;;;;;5007386;28;51173;-69
2021/10/16 12:13:57;;;;;;;;;3.00;3.00;;;;;;;;5011443;28;51247;-70
2021/10/16 12:16:23;;;;;;;;;4.33;4.33;;;;;;;;5009815;28;51913;-69
2021/10/16 12:18:49;;;;;;;;;4.00;4.00;;;;;;;;5011186;28;51070;-69
2021/10/16 12:21:24;;;;;;;;;6.00;5.67;;;;;;;;5010549;28;50950;-70
2021/10/16 12:23:49;;;;;;;;;7.00;6.67;;;;;;;;5011047;28;51087;-68
2021/10/16 12:26:35;;;;;;;;;5.67;5.00;;;;;;;;5011157;28;51173;-71
2021/10/16 12:29:02;;;;;;;;;7.67;6.67;;;;;;;;5011213;28;51056;-69
2021/10/16 12:31:27;;;;;;;;;8.00;8.00;;;;;;;;5010535;28;51145;-69
2021/10/16 12:33:59;;;;;;;;;7.00;7.00;;;;;;;;5009286;28;51039;-69
2021/10/16 12:36:25;;;;;;;;;6.00;6.00;;;;;;;;5010692;28;52095;-69
2021/10/16 12:38:51;;;;;;;;;6.00;6.00;;;;;;;;5010415;28;52219;-69
2021/10/16 12:41:25;;;;;;;;;7.00;7.00;;;;;;;;5023385;28;51080;-69
2021/10/16 12:43:51;;;;;;;;;6.67;6.67;;;;;;;;5010406;28;51117;-68
2021/10/16 12:46:26;;;;;;;;;9.33;6.33;;;;;;;;5008352;28;51289;-69
2021/10/16 12:48:54;;;;;;;;;7.67;7.67;;;;;;;;5001748;28;51155;-68
2021/10/16 12:51:37;;;;;;;;;9.33;9.33;;;;;;;;5008972;28;50992;-69
2021/10/16 12:54:02;;;;;;;;;8.33;8.00;;;;;;;;5003212;28;51218;-68
2021/10/16 12:56:28;;;;;;;;;6.00;6.00;;;;;;;;5008102;28;52678;-69
2021/10/16 12:58:53;;;;;;;;;7.33;6.00;;;;;;;;5007970;28;50886;-68
2021/10/16 13:01:18;;;;;;;;;6.00;6.00;;;;;;;;5013092;28;51386;-68
2021/10/16 13:03:43;;;;;;;;;6.67;6.67;;;;;;;;5010857;28;51092;-70
2021/10/16 13:06:09;;;;;;;;;11.33;10.33;;;;;;;;5013025;28;52304;-71
2021/10/16 13:08:34;;;;;;;;;6.00;5.67;;;;;;;;5011620;28;50851;-69
2021/10/16 13:10:59;;;;;;;;;8.00;8.00;;;;;;;;5011463;28;51159;-70
2021/10/16 13:13:24;;;;;;;;;5.67;5.00;;;;;;;;5013490;28;51039;-70
2021/10/16 13:15:50;;;;;;;;;5.33;5.33;;;;;;;;5012751;28;51083;-70
2021/10/16 13:18:15;;;;;;;;;4.33;4.33;;;;;;;;5012517;28;50886;-70
2021/10/16 13:20:41;;;;;;;;;6.67;6.33;;;;;;;;5013253;28;51046;-68
2021/10/16 13:23:06;;;;;;;;;6.00;6.00;;;;;;;;5012932;28;52053;-70
2021/10/16 13:25:32;;;;;;;;;6.00;5.00;;;;;;;;5008969;28;51025;-70
2021/10/16 13:27:57;;;;;;;;;6.00;6.00;;;;;;;;5003064;28;50849;-70
2021/10/16 13:30:22;;;;;;;;;5.67;5.00;;;;;;;;5011481;28;50991;-70
2021/10/16 13:32:49;;;;;;;;;11.00;11.00;;;;;;;;5012377;28;50924;-71
2021/10/16 13:35:14;;;;;;;;;13.67;13.00;;;;;;;;5011492;28;51160;-68
2021/10/16 13:37:39;;;;;;;;;13.33;10.67;;;;;;;;5011895;28;51144;-70
2021/10/16 13:40:05;;;;;;;;;8.33;8.33;;;;;;;;5011307;28;51212;-69
2021/10/16 13:42:39;;;;;;;;;5.00;5.00;;;;;;;;5003900;28;51325;-70
2021/10/16 13:45:06;;;;;;;;;5.00;4.00;;;;;;;;4966907;28;1166122;-70
2021/10/16 13:47:31;;;;;;;;;4.33;4.33;;;;;;;;5012772;28;51108;-72
2021/10/16 13:49:56;;;;;;;;;8.33;7.33;;;;;;;;5011801;28;51339;-69
2021/10/16 13:52:22;;;;;;;;;11.67;9.33;;;;;;;;4994495;28;51136;-70
2021/10/16 13:54:48;;;;;;;;;6.00;6.00;;;;;;;;5011520;28;53509;-70
2021/10/16 13:57:13;;;;;;;;;6.33;6.00;;;;;;;;5012461;28;51027;-71
2021/10/16 13:59:39;;;;;;;;;4.33;4.00;;;;;;;;5005246;28;50932;-73
2021/10/16 14:02:04;;;;;;;;;9.00;9.00;;;;;;;;5005365;28;51141;-72
2021/10/16 14:04:29;;;;;;;;;10.00;9.00;;;;;;;;5012008;28;51585;-69
2021/10/16 14:06:55;;;;;;;;;6.67;6.67;;;;;;;;5011707;28;51530;-71
2021/10/16 14:09:20;;;;;;;;;6.33;6.33;;;;;;;;5010261;28;51152;-69
2021/10/16 14:11:45;;;;;;;;;4.67;4.00;;;;;;;;5012311;28;50861;-69
2021/10/16 14:14:11;;;;;;;;;8.33;7.33;;;;;;;;5010595;28;52582;-69
2021/10/16 14:16:36;;;;;;;;;4.00;4.00;;;;;;;;5004975;28;52745;-69
2021/10/16 14:19:01;;;;;;;;;3.33;3.00;;;;;;;;5011516;28;51269;-70
2021/10/16 14:21:27;;;;;;;;;3.67;3.00;;;;;;;;5012116;28;51240;-71
2021/10/16 14:23:52;;;;;;;;;8.00;7.00;;;;;;;;5011082;28;52298;-71